createdAt,value
2023-05-21T00:11:17.944Z,86.1
2023-05-21T00:31:17.927Z,86.5
2023-05-21T00:51:17.871Z,85.8
2023-05-21T01:11:17.824Z,85.3
2023-05-21T01:31:17.765Z,85.8
2023-05-21T02:51:17.623Z,87.4
2023-05-21T03:31:17.546Z,89.1
2023-05-21T03:51:17.510Z,90.4
2023-05-21T04:11:17.502Z,90.7
2023-05-21T04:31:17.465Z,90.7
2023-05-21T04:51:17.402Z,90.2
2023-05-21T05:11:17.367Z,89.1
2023-05-21T05:31:17.336Z,88.2
2023-05-21T05:51:17.338Z,87.1
2023-05-21T06:31:17.206Z,85
2023-05-21T06:51:17.172Z,84.6
2023-05-21T07:11:17.179Z,82.9
2023-05-21T07:31:17.105Z,81.1
2023-05-21T07:51:17.041Z,80.1
2023-05-21T08:11:17.019Z,77
2023-05-21T08:31:17.008Z,75.9
2023-05-21T08:51:16.925Z,72.1
2023-05-21T09:11:16.882Z,70.7
2023-05-21T09:31:16.852Z,69.3
2023-05-21T09:51:16.827Z,69.5
2023-05-21T10:11:16.791Z,68.8
2023-05-21T10:31:16.738Z,68.5
2023-05-21T10:51:16.694Z,68
2023-05-21T11:11:16.632Z,66.6
2023-05-21T11:51:16.563Z,66.7
2023-05-21T12:11:16.515Z,64.2
2023-05-21T12:31:16.490Z,61.1
2023-05-21T12:51:16.426Z,61.5
2023-05-21T13:11:16.407Z,61.1
2023-05-21T13:31:16.344Z,61.1
2023-05-21T13:51:25.799Z,58.3
2023-05-21T14:31:16.219Z,53.5
2023-05-21T14:51:16.165Z,56.8
2023-05-21T15:11:16.124Z,57.4
2023-05-21T15:31:16.085Z,57.7
2023-05-21T15:51:16.043Z,56.2
2023-05-21T16:11:16.015Z,57.5
2023-05-21T16:51:15.933Z,59.8
2023-05-21T17:11:15.885Z,63.3
2023-05-21T17:31:15.982Z,64.5
2023-05-21T17:51:15.803Z,66.5
2023-05-21T18:11:15.751Z,69
2023-05-21T18:31:15.723Z,70.6
2023-05-21T18:51:15.669Z,71.9
2023-05-21T19:11:15.618Z,73.6
2023-05-21T19:31:15.591Z,75.4
2023-05-21T19:51:15.546Z,73.3
2023-05-21T20:11:15.513Z,63.1
2023-05-21T20:31:15.481Z,65
2023-05-21T20:51:15.428Z,76.5
2023-05-21T21:11:15.370Z,80.8
2023-05-21T21:31:15.322Z,82.9
2023-05-21T21:51:15.291Z,86.8
2023-05-21T22:31:15.288Z,91.2
2023-05-21T22:51:15.221Z,94.2
2023-05-21T23:11:15.140Z,95.7
2023-05-21T23:31:15.093Z,96
2023-05-21T23:51:15.050Z,95.9
